createdAt,value
2022-08-10T00:01:22.363Z,2.97
2022-08-10T00:03:54.359Z,3.22
2022-08-10T00:06:26.425Z,2.90
2022-08-10T00:08:59.914Z,3.33
2022-08-10T00:11:31.934Z,2.95
2022-08-10T00:14:04.032Z,4.00
2022-08-10T00:16:36.030Z,3.60
2022-08-10T00:19:08.068Z,3.25
2022-08-10T00:21:42.341Z,2.80
2022-08-10T00:24:15.140Z,3.08
2022-08-10T00:27:52.115Z,3.15
2022-08-10T00:29:39.014Z,3.03
2022-08-10T00:32:10.988Z,2.70
2022-08-10T00:34:43.156Z,2.42
2022-08-10T00:37:17.389Z,3.10
2022-08-10T00:39:49.384Z,2.58
2022-08-10T00:42:21.391Z,3.15
2022-08-10T00:44:53.793Z,2.63
2022-08-10T00:47:36.765Z,3.10
2022-08-10T00:50:10.367Z,3.10
2022-08-10T00:52:42.338Z,3.38
2022-08-10T00:55:14.835Z,3.42
2022-08-10T00:57:55.247Z,3.30
2022-08-10T01:00:28.208Z,3.58
2022-08-10T01:03:00.363Z,3.42
2022-08-10T01:05:33.631Z,3.08
2022-08-10T01:08:32.377Z,2.97
2022-08-10T01:12:38.384Z,2.97
2022-08-10T01:14:36.385Z,3.00
2022-08-10T01:17:23.403Z,3.38
2022-08-10T01:20:34.895Z,3.08
2022-08-10T01:23:21.772Z,3.92
2022-08-10T01:26:43.247Z,3.42
2022-08-10T01:29:42.656Z,3.58
2022-08-10T01:32:22.395Z,3.22
2022-08-10T01:35:10.545Z,3.50
2022-08-10T01:38:16.790Z,3.42
2022-08-10T01:41:03.583Z,3.67
2022-08-10T01:43:41.876Z,3.55
2022-08-10T01:46:15.792Z,3.78
2022-08-10T01:48:55.195Z,3.50
2022-08-10T01:51:39.365Z,3.50
2022-08-10T01:54:20.058Z,3.60
2022-08-10T01:56:56.750Z,4.00
2022-08-10T01:59:34.766Z,4.10
2022-08-10T02:02:10.743Z,3.72
2022-08-10T02:04:48.078Z,3.42
2022-08-10T02:07:25.585Z,3.63
2022-08-10T02:10:04.529Z,3.20
2022-08-10T02:12:38.216Z,3.30
2022-08-10T02:15:22.153Z,3.28
2022-08-10T02:18:02.077Z,3.20
2022-08-10T02:20:45.981Z,3.60
2022-08-10T02:23:32.141Z,3.30
2022-08-10T02:26:07.189Z,3.83
2022-08-10T02:28:41.474Z,4.32
2022-08-10T02:31:23.012Z,4.40
2022-08-10T02:33:59.535Z,4.10
2022-08-10T02:36:34.541Z,4.57
2022-08-10T02:39:09.198Z,4.20
2022-08-10T02:45:14.851Z,4.45
2022-08-10T02:45:29.204Z,4.40
2022-08-10T02:48:12.674Z,4.15
2022-08-10T02:50:55.834Z,4.00
2022-08-10T02:53:54.934Z,4.75
2022-08-10T02:56:38.259Z,4.28
2022-08-10T02:59:11.251Z,6.13
2022-08-10T03:01:49.056Z,4.65
2022-08-10T03:04:55.345Z,5.05
2022-08-10T03:07:44.524Z,4.25
2022-08-10T03:10:21.984Z,4.30
2022-08-10T03:12:59.716Z,4.10
2022-08-10T03:15:34.978Z,4.28
2022-08-10T03:18:08.526Z,4.20
2022-08-10T03:20:43.126Z,4.75
2022-08-10T03:23:19.573Z,4.50
2022-08-10T03:25:56.765Z,4.35
2022-08-10T03:28:32.759Z,4.25
2022-08-10T03:31:04.791Z,4.60
2022-08-10T03:33:41.679Z,4.13
2022-08-10T03:36:40.397Z,4.10
2022-08-10T03:39:05.826Z,4.28
2022-08-10T03:41:53.568Z,4.20
2022-08-10T03:44:33.742Z,4.68
2022-08-10T03:47:16.506Z,4.15
2022-08-10T03:49:49.752Z,3.88
2022-08-10T03:52:22.077Z,4.65
2022-08-10T03:54:54.506Z,4.57
2022-08-10T03:57:30.081Z,4.25
2022-08-10T04:00:02.172Z,4.20
2022-08-10T04:02:44.653Z,4.47
2022-08-10T04:05:20.117Z,4.55
2022-08-10T04:07:52.128Z,4.57
2022-08-10T04:10:24.096Z,4.50
2022-08-10T04:12:56.392Z,4.85
2022-08-10T04:15:30.998Z,4.13
2022-08-10T04:18:06.274Z,3.95
2022-08-10T04:20:53.039Z,4.82
2022-08-10T04:23:29.585Z,4.20
2022-08-10T04:26:01.636Z,4.45
2022-08-10T04:28:33.851Z,4.30
2022-08-10T04:31:08.632Z,4.60
2022-08-10T04:33:46.081Z,4.43
2022-08-10T04:36:21.206Z,4.40
2022-08-10T04:38:54.260Z,4.65
2022-08-10T04:41:27.183Z,4.15
2022-08-10T04:43:59.377Z,4.47
2022-08-10T04:46:42.743Z,4.50
2022-08-10T04:49:54.217Z,4.78
2022-08-10T04:52:15.380Z,4.53
2022-08-10T04:54:47.384Z,4.78
2022-08-10T04:57:19.354Z,5.00
2022-08-10T04:59:51.291Z,4.50
2022-08-10T05:02:30.358Z,4.35
2022-08-10T05:05:04.662Z,4.22
2022-08-10T05:07:53.896Z,4.70
2022-08-10T05:10:28.794Z,5.00
2022-08-10T05:13:00.727Z,4.57
2022-08-10T05:15:32.720Z,4.70
2022-08-10T05:18:09.813Z,4.40
2022-08-10T05:20:47.193Z,3.75
2022-08-10T05:23:21.795Z,3.83
2022-08-10T05:25:53.763Z,4.63
2022-08-10T05:28:27.687Z,3.95
2022-08-10T05:31:02.789Z,4.30
2022-08-10T05:33:34.754Z,6.00
2022-08-10T05:36:07.413Z,7.72
2022-08-10T05:38:39.969Z,4.35
2022-08-10T05:41:12.146Z,4.90
2022-08-10T05:43:44.848Z,4.05
2022-08-10T05:46:21.103Z,4.47
2022-08-10T05:48:58.880Z,4.22
2022-08-10T05:51:32.117Z,3.88
2022-08-10T05:54:09.112Z,4.00
2022-08-10T05:56:54.908Z,3.95
2022-08-10T06:00:35.542Z,4.47
2022-08-10T06:02:35.768Z,3.58
2022-08-10T06:05:26.519Z,4.32
2022-08-10T06:08:05.026Z,3.80
2022-08-10T06:10:54.906Z,4.25
2022-08-10T06:14:13.388Z,3.58
2022-08-10T06:16:46.057Z,3.72
2022-08-10T06:19:19.146Z,3.75
2022-08-10T06:22:01.155Z,3.40
2022-08-10T06:25:04.682Z,3.03
2022-08-10T06:27:34.754Z,3.03
2022-08-10T06:30:20.103Z,2.70
2022-08-10T06:32:56.709Z,3.25
2022-08-10T06:35:32.557Z,3.55
2022-08-10T06:38:06.295Z,3.13
2022-08-10T06:40:47.374Z,2.50
2022-08-10T06:43:21.504Z,3.17
2022-08-10T06:46:07.488Z,2.78
2022-08-10T06:48:51.792Z,2.47
2022-08-10T06:51:30.090Z,2.72
2022-08-10T06:54:06.664Z,3.15
2022-08-10T06:57:01.695Z,3.10
2022-08-10T06:59:46.305Z,3.00
2022-08-10T07:02:30.168Z,2.80
2022-08-10T07:05:06.641Z,2.92
2022-08-10T07:07:41.216Z,2.80
2022-08-10T07:10:17.940Z,2.33
2022-08-10T07:12:54.960Z,2.85
2022-08-10T07:15:59.144Z,2.78
2022-08-10T07:18:20.920Z,2.67
2022-08-10T07:20:53.798Z,3.20
2022-08-10T07:23:58.843Z,3.08
2022-08-10T07:26:20.629Z,2.85
2022-08-10T07:28:53.411Z,2.50
2022-08-10T07:31:54.338Z,2.40
2022-08-10T07:34:29.188Z,2.50
2022-08-10T07:37:06.511Z,2.25
2022-08-10T07:40:02.103Z,2.30
2022-08-10T07:42:42.093Z,3.22
2022-08-10T07:45:17.410Z,2.53
2022-08-10T07:48:03.710Z,2.30
2022-08-10T07:50:41.327Z,2.30
2022-08-10T07:53:24.848Z,2.20
2022-08-10T07:56:07.607Z,2.13
2022-08-10T07:58:51.753Z,2.28
2022-08-10T08:01:29.594Z,1.98
2022-08-10T08:04:11.044Z,2.33
2022-08-10T08:06:45.914Z,1.30
2022-08-10T08:09:20.719Z,1.45
2022-08-10T08:11:54.723Z,1.30
2022-08-10T08:14:27.709Z,1.38
2022-08-10T08:17:02.626Z,1.13
2022-08-10T08:19:45.759Z,1.30
2022-08-10T08:24:06.194Z,1.23
2022-08-10T08:25:14.641Z,1.50
2022-08-10T08:27:52.781Z,1.10
2022-08-10T08:30:27.771Z,1.08
2022-08-10T08:33:01.262Z,1.10
2022-08-10T08:35:34.568Z,0.90
2022-08-10T08:38:33.407Z,1.00
2022-08-10T08:41:15.355Z,1.20
2022-08-10T08:44:17.414Z,1.15
2022-08-10T08:48:01.000Z,1.20
2022-08-10T08:50:23.884Z,0.85
2022-08-10T08:54:01.218Z,0.90
2022-08-10T08:56:50.112Z,1.48
2022-08-10T08:59:59.717Z,0.80
2022-08-10T09:03:09.178Z,1.30
2022-08-10T09:05:58.651Z,1.02
2022-08-10T09:08:53.895Z,0.73
2022-08-10T09:12:02.770Z,1.00
2022-08-10T09:14:42.003Z,0.88
2022-08-10T09:17:46.156Z,1.73
2022-08-10T09:20:37.544Z,0.98
2022-08-10T09:24:04.759Z,1.15
2022-08-10T09:26:51.774Z,1.13
2022-08-10T09:29:31.283Z,0.80
2022-08-10T09:36:13.815Z,0.68
2022-08-10T09:36:28.042Z,0.90
2022-08-10T09:38:38.117Z,1.25
2022-08-10T09:41:40.064Z,1.25
2022-08-10T09:44:58.045Z,1.50
2022-08-10T09:48:02.455Z,1.40
2022-08-10T09:54:35.474Z,1.17
2022-08-10T09:57:48.341Z,1.30
2022-08-10T10:00:23.950Z,1.35
2022-08-10T10:03:17.765Z,1.23
2022-08-10T10:06:19.093Z,1.52
2022-08-10T10:09:35.136Z,1.30
2022-08-10T10:12:37.200Z,1.38
2022-08-10T10:15:24.139Z,1.40
2022-08-10T10:18:03.432Z,1.00
2022-08-10T10:21:00.074Z,1.02
2022-08-10T10:24:15.565Z,1.15
2022-08-10T10:27:02.592Z,1.60
2022-08-10T10:29:57.242Z,1.20
2022-08-10T10:32:57.691Z,1.30
2022-08-10T10:35:44.577Z,1.20
2022-08-10T10:38:19.061Z,0.93
2022-08-10T10:42:03.729Z,1.08
2022-08-10T10:44:50.345Z,1.02
2022-08-10T10:47:46.741Z,1.23
2022-08-10T10:50:31.598Z,1.15
2022-08-10T10:53:19.169Z,1.10
2022-08-10T10:56:43.723Z,1.02
2022-08-10T10:59:57.774Z,1.13
2022-08-10T11:03:01.637Z,1.63
2022-08-10T11:05:43.437Z,0.90
2022-08-10T11:08:30.738Z,1.25
2022-08-10T11:11:25.355Z,0.70
2022-08-10T11:14:24.650Z,0.82
2022-08-10T11:17:12.055Z,0.82
2022-08-10T11:20:26.321Z,0.90
2022-08-10T11:23:31.855Z,0.70
2022-08-10T11:26:25.211Z,0.60
2022-08-10T11:29:43.913Z,0.93
2022-08-10T11:32:37.706Z,0.70
2022-08-10T11:35:34.822Z,0.70
2022-08-10T11:39:11.098Z,0.55
2022-08-10T11:42:09.072Z,0.70
2022-08-10T11:45:00.454Z,0.82
2022-08-10T11:47:41.472Z,0.65
2022-08-10T11:50:37.054Z,0.50
2022-08-10T11:53:24.696Z,0.73
2022-08-10T11:55:59.860Z,0.80
2022-08-10T11:59:00.443Z,0.60
2022-08-10T12:01:34.247Z,0.70
2022-08-10T12:04:11.890Z,0.60
2022-08-10T12:06:55.691Z,0.70
2022-08-10T12:10:09.738Z,0.57
2022-08-10T12:12:23.686Z,0.80
2022-08-10T12:15:15.717Z,0.50
2022-08-10T12:17:54.805Z,0.80
2022-08-10T12:20:35.095Z,1.00
2022-08-10T12:23:24.474Z,0.60
2022-08-10T12:26:21.150Z,0.55
2022-08-10T12:29:15.246Z,0.63
2022-08-10T12:32:27.688Z,0.60
2022-08-10T12:35:26.079Z,0.50
2022-08-10T12:38:35.064Z,0.70
2022-08-10T12:41:43.522Z,0.50
2022-08-10T12:44:43.311Z,0.90
2022-08-10T12:47:50.556Z,0.55
2022-08-10T12:50:59.834Z,0.68
2022-08-10T12:53:56.723Z,0.65
2022-08-10T12:56:36.844Z,0.70
2022-08-10T12:59:14.040Z,0.50
2022-08-10T13:02:09.557Z,0.70
2022-08-10T13:04:44.304Z,0.63
2022-08-10T13:08:03.837Z,0.63
2022-08-10T13:10:25.351Z,0.73
2022-08-10T13:12:59.548Z,0.60
2022-08-10T13:15:49.398Z,0.70
2022-08-10T13:18:29.841Z,0.68
2022-08-10T13:21:20.598Z,0.90
2022-08-10T13:24:15.135Z,0.57
2022-08-10T13:27:26.243Z,1.00
2022-08-10T13:30:06.968Z,1.00
2022-08-10T13:32:51.116Z,1.63
2022-08-10T13:35:25.828Z,0.70
2022-08-10T13:37:59.409Z,0.90
2022-08-10T13:40:33.402Z,0.90
2022-08-10T13:43:08.325Z,0.60
2022-08-10T13:45:46.410Z,0.77
2022-08-10T13:48:24.205Z,0.63
2022-08-10T13:50:59.307Z,0.85
2022-08-10T13:53:33.421Z,0.82
2022-08-10T13:56:10.887Z,0.80
2022-08-10T13:58:43.536Z,0.80
2022-08-10T14:01:22.759Z,0.80
2022-08-10T14:03:55.908Z,0.80
2022-08-10T14:06:30.084Z,0.65
2022-08-10T14:09:10.332Z,0.70
2022-08-10T14:11:44.055Z,0.80
2022-08-10T14:14:18.912Z,0.65
2022-08-10T14:16:51.905Z,0.70
2022-08-10T14:19:28.860Z,0.95
2022-08-10T14:22:01.993Z,0.80
2022-08-10T14:24:34.328Z,0.80
2022-08-10T14:27:10.522Z,0.85
2022-08-10T14:30:10.000Z,0.77
2022-08-10T14:36:20.991Z,0.77
2022-08-10T14:38:19.703Z,1.10
2022-08-10T14:40:55.426Z,0.93
2022-08-10T14:43:40.847Z,0.70
2022-08-10T14:46:20.251Z,0.90
2022-08-10T14:48:55.891Z,0.80
2022-08-10T14:51:44.422Z,1.23
2022-08-10T14:54:18.037Z,0.90
2022-08-10T14:56:50.958Z,0.90
2022-08-10T14:59:45.883Z,0.90
2022-08-10T15:02:40.086Z,0.95
2022-08-10T15:05:17.502Z,1.33
2022-08-10T15:07:58.763Z,0.63
2022-08-10T15:10:32.427Z,1.20
2022-08-10T15:13:34.246Z,0.88
2022-08-10T15:16:13.898Z,0.98
2022-08-10T15:18:58.593Z,0.80
2022-08-10T15:21:43.505Z,1.05
2022-08-10T15:24:38.286Z,0.90
2022-08-10T15:27:11.365Z,0.68
2022-08-10T15:29:44.797Z,0.73
2022-08-10T15:34:01.932Z,0.90
2022-08-10T15:36:39.498Z,1.05
2022-08-10T15:40:24.116Z,1.85
2022-08-10T15:42:20.816Z,0.90
2022-08-10T15:44:55.007Z,1.15
2022-08-10T15:47:45.877Z,0.93
2022-08-10T15:50:40.192Z,1.13
2022-08-10T15:53:49.412Z,1.15
2022-08-10T15:56:34.940Z,0.77
2022-08-10T15:59:15.532Z,1.05
2022-08-10T16:02:14.048Z,0.77
2022-08-10T16:05:11.908Z,1.10
2022-08-10T16:08:00.529Z,0.93
2022-08-10T16:10:53.585Z,0.90
2022-08-10T16:13:50.554Z,1.17
2022-08-10T16:16:31.547Z,1.13
2022-08-10T16:19:22.423Z,1.00
2022-08-10T16:22:02.217Z,1.27
2022-08-10T16:24:38.080Z,2.20
2022-08-10T16:27:11.126Z,1.60
2022-08-10T16:29:56.084Z,1.27
2022-08-10T16:32:32.165Z,1.20
2022-08-10T16:35:09.137Z,1.30
2022-08-10T16:37:56.647Z,1.60
2022-08-10T16:40:32.955Z,1.30
2022-08-10T16:43:09.228Z,1.63
2022-08-10T16:45:48.106Z,1.63
2022-08-10T16:48:48.446Z,1.60
2022-08-10T16:51:22.770Z,1.55
2022-08-10T16:53:59.177Z,1.00
2022-08-10T16:56:48.623Z,1.10
2022-08-10T16:59:24.442Z,1.20
2022-08-10T17:01:58.917Z,1.38
2022-08-10T17:04:34.365Z,1.40
2022-08-10T17:07:14.415Z,1.10
2022-08-10T17:09:50.948Z,1.10
2022-08-10T17:12:30.351Z,1.00
2022-08-10T17:15:10.278Z,1.35
2022-08-10T17:17:49.115Z,1.05
2022-08-10T17:20:32.976Z,1.00
2022-08-10T17:23:10.664Z,1.10
2022-08-10T17:25:46.063Z,1.10
2022-08-10T17:28:34.914Z,0.93
2022-08-10T17:31:23.835Z,1.10
2022-08-10T17:34:12.369Z,0.77
2022-08-10T17:36:49.952Z,1.02
2022-08-10T17:39:29.147Z,1.30
2022-08-10T17:42:04.484Z,0.70
2022-08-10T17:44:39.113Z,0.90
2022-08-10T17:47:12.505Z,0.80
2022-08-10T17:49:45.716Z,1.00
2022-08-10T17:52:23.968Z,0.75
2022-08-10T17:55:01.736Z,0.77
2022-08-10T17:57:39.491Z,0.80
2022-08-10T18:00:14.586Z,0.90
2022-08-10T18:02:49.378Z,0.75
2022-08-10T18:05:21.605Z,0.95
2022-08-10T18:07:56.355Z,1.27
2022-08-10T18:10:29.160Z,0.73
2022-08-10T18:13:01.906Z,1.00
2022-08-10T18:15:38.165Z,0.98
2022-08-10T18:18:17.347Z,1.00
2022-08-10T18:21:02.365Z,0.90
2022-08-10T18:23:38.469Z,1.10
2022-08-10T18:26:15.230Z,1.27
2022-08-10T18:28:53.214Z,1.35
2022-08-10T18:31:26.425Z,1.83
2022-08-10T18:33:59.455Z,1.88
2022-08-10T18:36:38.821Z,1.33
2022-08-10T18:39:13.294Z,1.15
2022-08-10T18:42:00.720Z,1.42
2022-08-10T18:44:55.454Z,1.35
2022-08-10T18:47:39.918Z,0.90
2022-08-10T18:50:49.698Z,0.90
2022-08-10T18:53:48.605Z,1.08
2022-08-10T18:56:40.547Z,1.13
2022-08-10T19:00:03.881Z,0.90
2022-08-10T19:03:53.503Z,1.35
2022-08-10T19:07:02.040Z,1.02
2022-08-10T19:09:48.321Z,1.70
2022-08-10T19:12:50.461Z,1.27
2022-08-10T19:15:42.649Z,1.40
2022-08-10T19:18:34.449Z,1.05
2022-08-10T19:21:33.174Z,1.00
2022-08-10T19:24:15.199Z,1.10
2022-08-10T19:26:59.596Z,1.25
2022-08-10T19:30:11.027Z,1.10
2022-08-10T19:33:10.099Z,1.38
2022-08-10T19:36:04.395Z,1.23
2022-08-10T19:38:50.634Z,1.33
2022-08-10T19:41:44.408Z,1.20
2022-08-10T19:44:31.272Z,1.63
2022-08-10T19:47:12.629Z,2.67
2022-08-10T19:50:04.557Z,2.30
2022-08-10T19:53:02.215Z,3.65
2022-08-10T19:56:18.469Z,2.60
2022-08-10T19:59:13.040Z,2.15
2022-08-10T20:01:55.177Z,1.88
2022-08-10T20:04:34.079Z,2.17
2022-08-10T20:07:51.475Z,1.42
2022-08-10T20:10:54.784Z,1.77
2022-08-10T20:13:41.997Z,1.58
2022-08-10T20:16:22.365Z,1.13
2022-08-10T20:19:10.655Z,1.23
2022-08-10T20:21:53.071Z,1.60
2022-08-10T20:24:49.638Z,1.05
2022-08-10T20:27:58.889Z,1.65
2022-08-10T20:30:31.736Z,1.23
2022-08-10T20:33:12.413Z,1.10
2022-08-10T20:35:49.351Z,1.10
2022-08-10T20:38:32.872Z,1.05
2022-08-10T20:41:46.545Z,1.35
2022-08-10T20:45:11.482Z,1.13
2022-08-10T20:48:22.365Z,1.50
2022-08-10T20:50:59.449Z,1.20
2022-08-10T20:53:45.428Z,1.58
2022-08-10T20:56:25.215Z,1.55
2022-08-10T21:00:04.527Z,1.08
2022-08-10T21:03:25.150Z,1.63
2022-08-10T21:06:52.996Z,1.15
2022-08-10T21:09:58.874Z,1.38
2022-08-10T21:13:06.543Z,1.10
2022-08-10T21:16:49.734Z,1.08
2022-08-10T21:19:53.638Z,1.40
2022-08-10T21:22:47.751Z,1.20
2022-08-10T21:25:35.884Z,1.83
2022-08-10T21:28:35.453Z,1.17
2022-08-10T21:31:30.957Z,1.20
2022-08-10T21:34:54.269Z,1.33
2022-08-10T21:37:57.141Z,1.45
2022-08-10T21:41:18.373Z,1.52
2022-08-10T21:44:20.670Z,1.40
2022-08-10T21:48:16.647Z,1.52
2022-08-10T21:52:01.519Z,1.60
2022-08-10T21:55:11.918Z,1.63
2022-08-10T21:58:30.601Z,1.58
2022-08-10T22:01:39.329Z,1.67
2022-08-10T22:04:32.106Z,1.90
2022-08-10T22:07:24.437Z,1.75
2022-08-10T22:10:17.552Z,1.77
2022-08-10T22:13:11.249Z,2.30
2022-08-10T22:16:14.006Z,2.47
2022-08-10T22:19:14.803Z,1.83
2022-08-10T22:22:27.003Z,1.95
2022-08-10T22:25:36.597Z,2.10
2022-08-10T22:28:33.787Z,2.10
2022-08-10T22:31:36.615Z,2.00
2022-08-10T22:34:52.977Z,2.43
2022-08-10T22:38:11.737Z,2.33
2022-08-10T22:41:04.976Z,2.33
2022-08-10T22:43:56.962Z,2.78
2022-08-10T22:46:51.355Z,2.88
2022-08-10T22:49:24.407Z,2.53
2022-08-10T22:52:08.838Z,2.42
2022-08-10T22:55:32.048Z,3.10
2022-08-10T22:58:22.941Z,2.47
2022-08-10T23:01:42.151Z,2.30
2022-08-10T23:04:36.231Z,2.20
2022-08-10T23:07:17.651Z,2.45
2022-08-10T23:10:09.460Z,2.28
2022-08-10T23:12:48.113Z,2.00
2022-08-10T23:15:54.374Z,2.22
2022-08-10T23:18:56.956Z,3.38
2022-08-10T23:22:02.851Z,2.67
2022-08-10T23:24:43.595Z,2.25
2022-08-10T23:27:38.999Z,2.72
2022-08-10T23:30:17.065Z,2.33
2022-08-10T23:32:59.375Z,2.17
2022-08-10T23:36:30.534Z,2.70
2022-08-10T23:38:53.303Z,3.10
2022-08-10T23:44:04.785Z,2.50
2022-08-10T23:46:41.810Z,2.17
2022-08-10T23:49:14.445Z,2.10
2022-08-10T23:51:56.287Z,2.28
2022-08-10T23:54:30.014Z,2.42
2022-08-10T23:57:02.938Z,2.47
2022-08-10T23:59:35.812Z,2.00
